Flight Track Log - Related Links

Times and Time Zones

All times are in EST time to prevent confusion due to time zone crossing. See the UAL5887 flight status page for this flight to view local times or setup timezone preferences in your user account.

Time Position Orientation Groundspeed Altitude Reporting Facility
EST Latitude Longitude Course Direction KTS MPH feet Rate Location/Type
Wed 06:22:15 AM 42.7783 -84.6233 270° West 134 154 2,500  Level Cleveland Center
Wed 06:23:07 AM 42.7733 -84.6672 261° West 164 189 4,000 1,714 Climbing Chicago Center
Wed 06:24:07 AM 42.7778 -84.7472 274° West 204 235 5,700 2,150 Climbing Chicago Center
Wed 06:25:00 AM 42.7667 -84.9445 270° West  Level FlightAware Approximate
Wed 06:25:07 AM 42.7794 -84.8417 271° West 239 275 8,300  Level Chicago Center
Wed 06:26:00 AM 42.7716 -85.0342 281° West  Level FlightAware Approximate
Wed 06:26:08 AM 42.7806 -84.9369 271° West 250 288 10,500  Level Chicago Center
Wed 06:27:00 AM 42.7833 -85.1230 270° West  Level FlightAware Approximate
Wed 06:27:08 AM 42.7817 -85.0686 271° West 283 326 11,500  Level Chicago Center
Wed 06:28:09 AM 42.7831 -85.1936 271° West 318 366 12,900 1,438 Climbing Chicago Center
Wed 06:29:09 AM 42.7842 -85.3200 271° West 332 382 14,400 1,500 Climbing Chicago Center
Wed 06:30:09 AM 42.7861 -85.4456 271° West 332 382 15,900 1,438 Climbing Chicago Center
Wed 06:31:10 AM 42.7731 -85.5708 262° West 336 387 17,300 1,041 Climbing Chicago Center
Wed 06:32:10 AM 42.7514 -85.6964 257° West 339 390 18,000 793 Climbing Chicago Center
Wed 06:33:11 AM 42.7278 -85.8258 256° West 347 399 18,900 942 Climbing Chicago Center
Wed 06:34:11 AM 42.7036 -85.9572 256° West 355 409 19,900 992 Climbing Chicago Center
Wed 06:35:12 AM 42.6792 -86.0925 256° West 363 418 20,900 992 Climbing Chicago Center
Wed 06:36:12 AM 42.6539 -86.2278 256° West 367 422 21,900 446 Climbing Chicago Center
Wed 06:37:13 AM 42.6278 -86.3647 256° West 372 428 21,800 -1,140 Descending Chicago Center
Wed 06:38:13 AM 42.6019 -86.5050 256° West 381 438 19,600 -1,950 Descending Chicago Center
Wed 06:39:13 AM 42.5767 -86.6361 255° West 363 418 17,900 -1,835 Descending Chicago Center
Wed 06:40:14 AM 42.5531 -86.7603 256° West 344 396 15,900 -2,033 Descending Chicago Center
Wed 06:41:14 AM 42.5203 -86.8739 249° West 328 377 13,800 -2,083 Descending Chicago Center
Wed 06:42:15 AM 42.4864 -86.9967 250° West 344 396 11,700 -1,983 Descending Chicago Center
Wed 06:43:15 AM 42.4558 -87.1081 250° West 319 367 9,800 -1,339 Descending Chicago Center
Wed 06:44:16 AM 42.4308 -87.1989 250° West 264 304 9,000 -397 Descending Chicago Center
Wed 06:45:16 AM 42.4069 -87.2869 250° West 251 289 9,000 -99 Level Chicago Center
Wed 06:46:17 AM 42.3725 -87.3622 238° Southwest 253 291 8,800 -694 Descending Chicago Center
Wed 06:47:17 AM 42.3186 -87.4103 213° Southwest 254 292 7,600 -1,400 Descending Chicago Center
Wed 06:48:17 AM 42.2517 -87.4700 213° Southwest 241 277 6,000 -1,289 Descending Chicago Center
Wed 06:49:18 AM 42.1997 -87.5200 215° Southwest 232 267 5,000 -595 Descending Chicago Center
Wed 06:50:18 AM 42.1472 -87.5689 215° Southwest 230 265 4,800 -496 Descending Chicago Center
Wed 06:51:19 AM 42.0947 -87.6158 214° Southwest 228 262 4,000 -397 Descending Chicago Center
Wed 06:52:19 AM 42.0439 -87.6653 216° Southwest 226 260 4,000 -149 Level Chicago Center
Wed 06:53:20 AM 42.0000 -87.7142 220° Southwest 217 250 3,700 -744 Descending Chicago Center
Wed 06:54:20 AM 41.9822 -87.7694 247° West 189 217 2,500 -942 Descending Chicago Center
Wed 06:55:21 AM 41.9842 -87.8222 273° West 165 190 1,800 -730 Descending Chicago Center
Wed 06:56:15 AM 41.9833 -87.8667 269° West 131 151 1,100 -778 Descending Chicago TRACON

Login

Don't have an account? Register now (free) for customized features, flight alerts, and more!